sensor_id;sensor_type;location;lat;lon;timestamp;P1;durP1;ratioP1;P2;durP2;ratioP2
22138;SDS011;25815;52.582;13.408;2022-09-01T00:01:55;2.53;;;0.40;;
22138;SDS011;25815;52.582;13.408;2022-09-01T00:04:22;1.67;;;0.60;;
22138;SDS011;25815;52.582;13.408;2022-09-01T00:06:50;1.38;;;0.40;;
22138;SDS011;25815;52.582;13.408;2022-09-01T00:09:19;0.40;;;0.38;;
22138;SDS011;25815;52.582;13.408;2022-09-01T00:11:48;0.77;;;0.45;;
22138;SDS011;25815;52.582;13.408;2022-09-01T00:14:14;1.23;;;0.60;;
22138;SDS011;25815;52.582;13.408;2022-09-01T00:16:40;1.00;;;0.50;;
22138;SDS011;25815;52.582;13.408;2022-09-01T00:19:06;1.85;;;0.50;;
22138;SDS011;25815;52.582;13.408;2022-09-01T00:21:33;0.63;;;0.40;;
22138;SDS011;25815;52.582;13.408;2022-09-01T00:24:00;0.57;;;0.50;;
22138;SDS011;25815;52.582;13.408;2022-09-01T00:26:26;2.58;;;0.50;;
22138;SDS011;25815;52.582;13.408;2022-09-01T00:28:52;1.85;;;0.40;;
22138;SDS011;25815;52.582;13.408;2022-09-01T00:31:19;1.40;;;0.50;;
22138;SDS011;25815;52.582;13.408;2022-09-01T00:33:45;1.60;;;0.70;;
22138;SDS011;25815;52.582;13.408;2022-09-01T00:36:12;2.30;;;0.70;;
22138;SDS011;25815;52.582;13.408;2022-09-01T00:38:38;0.60;;;0.50;;
22138;SDS011;25815;52.582;13.408;2022-09-01T00:41:05;1.15;;;0.57;;
22138;SDS011;25815;52.582;13.408;2022-09-01T00:43:45;1.05;;;0.60;;
22138;SDS011;25815;52.582;13.408;2022-09-01T00:46:16;2.35;;;0.60;;
22138;SDS011;25815;52.582;13.408;2022-09-01T00:48:42;1.35;;;0.80;;
22138;SDS011;25815;52.582;13.408;2022-09-01T00:51:09;1.35;;;0.57;;
22138;SDS011;25815;52.582;13.408;2022-09-01T00:53:35;0.60;;;0.45;;
22138;SDS011;25815;52.582;13.408;2022-09-01T00:56:03;1.50;;;0.60;;
22138;SDS011;25815;52.582;13.408;2022-09-01T00:58:30;1.05;;;0.60;;
22138;SDS011;25815;52.582;13.408;2022-09-01T01:00:57;1.00;;;0.60;;
22138;SDS011;25815;52.582;13.408;2022-09-01T01:03:23;1.52;;;0.50;;
22138;SDS011;25815;52.582;13.408;2022-09-01T01:05:50;1.75;;;0.47;;
22138;SDS011;25815;52.582;13.408;2022-09-01T01:08:19;2.05;;;0.60;;
22138;SDS011;25815;52.582;13.408;2022-09-01T01:10:45;1.00;;;0.50;;
22138;SDS011;25815;52.582;13.408;2022-09-01T01:13:14;1.30;;;0.50;;
22138;SDS011;25815;52.582;13.408;2022-09-01T01:15:41;2.38;;;0.60;;
22138;SDS011;25815;52.582;13.408;2022-09-01T01:18:13;1.85;;;0.57;;
22138;SDS011;25815;52.582;13.408;2022-09-01T01:20:39;1.33;;;0.55;;
22138;SDS011;25815;52.582;13.408;2022-09-01T01:23:43;1.05;;;0.60;;
22138;SDS011;25815;52.582;13.408;2022-09-01T01:26:10;1.15;;;0.55;;
22138;SDS011;25815;52.582;13.408;2022-09-01T01:28:38;1.38;;;0.50;;
22138;SDS011;25815;52.582;13.408;2022-09-01T01:31:08;1.05;;;0.60;;
22138;SDS011;25815;52.582;13.408;2022-09-01T01:33:42;2.38;;;0.60;;
22138;SDS011;25815;52.582;13.408;2022-09-01T01:36:22;0.75;;;0.50;;
22138;SDS011;25815;52.582;13.408;2022-09-01T01:38:56;0.77;;;0.50;;
22138;SDS011;25815;52.582;13.408;2022-09-01T01:43:51;3.05;;;0.50;;
22138;SDS011;25815;52.582;13.408;2022-09-01T01:46:17;1.27;;;0.60;;
22138;SDS011;25815;52.582;13.408;2022-09-01T01:48:43;1.10;;;0.68;;
22138;SDS011;25815;52.582;13.408;2022-09-01T01:51:11;1.33;;;0.52;;
22138;SDS011;25815;52.582;13.408;2022-09-01T01:53:38;0.88;;;0.40;;
22138;SDS011;25815;52.582;13.408;2022-09-01T01:56:04;2.25;;;0.50;;
22138;SDS011;25815;52.582;13.408;2022-09-01T01:58:32;4.20;;;0.60;;
22138;SDS011;25815;52.582;13.408;2022-09-01T02:00:59;0.90;;;0.50;;
22138;SDS011;25815;52.582;13.408;2022-09-01T02:03:26;0.95;;;0.50;;
22138;SDS011;25815;52.582;13.408;2022-09-01T02:06:02;1.35;;;0.80;;
22138;SDS011;25815;52.582;13.408;2022-09-01T02:08:32;1.77;;;0.60;;
22138;SDS011;25815;52.582;13.408;2022-09-01T02:11:00;2.20;;;0.47;;
22138;SDS011;25815;52.582;13.408;2022-09-01T02:13:26;0.85;;;0.50;;
22138;SDS011;25815;52.582;13.408;2022-09-01T02:15:55;1.42;;;0.60;;
22138;SDS011;25815;52.582;13.408;2022-09-01T02:18:23;1.15;;;0.60;;
22138;SDS011;25815;52.582;13.408;2022-09-01T02:20:52;1.77;;;0.60;;
22138;SDS011;25815;52.582;13.408;2022-09-01T02:23:19;1.77;;;0.60;;
22138;SDS011;25815;52.582;13.408;2022-09-01T02:25:47;2.45;;;0.77;;
22138;SDS011;25815;52.582;13.408;2022-09-01T02:28:15;1.42;;;0.50;;
22138;SDS011;25815;52.582;13.408;2022-09-01T02:30:42;2.35;;;0.60;;
22138;SDS011;25815;52.582;13.408;2022-09-01T02:33:09;0.95;;;0.50;;
22138;SDS011;25815;52.582;13.408;2022-09-01T02:35:35;2.42;;;0.70;;
22138;SDS011;25815;52.582;13.408;2022-09-01T02:38:02;3.25;;;0.60;;
22138;SDS011;25815;52.582;13.408;2022-09-01T02:40:29;1.10;;;0.50;;
22138;SDS011;25815;52.582;13.408;2022-09-01T02:42:55;2.25;;;0.50;;
22138;SDS011;25815;52.582;13.408;2022-09-01T02:45:23;1.92;;;0.60;;
22138;SDS011;25815;52.582;13.408;2022-09-01T02:47:49;2.75;;;0.55;;
22138;SDS011;25815;52.582;13.408;2022-09-01T02:50:17;1.40;;;0.60;;
22138;SDS011;25815;52.582;13.408;2022-09-01T02:52:44;1.15;;;0.60;;
22138;SDS011;25815;52.582;13.408;2022-09-01T02:55:13;2.25;;;0.70;;
22138;SDS011;25815;52.582;13.408;2022-09-01T02:57:45;1.95;;;0.70;;
22138;SDS011;25815;52.582;13.408;2022-09-01T03:00:12;2.45;;;0.47;;
22138;SDS011;25815;52.582;13.408;2022-09-01T03:02:47;2.33;;;0.75;;
22138;SDS011;25815;52.582;13.408;2022-09-01T03:05:15;2.10;;;0.95;;
22138;SDS011;25815;52.582;13.408;2022-09-01T03:07:43;1.63;;;0.75;;
22138;SDS011;25815;52.582;13.408;2022-09-01T03:10:09;2.15;;;0.77;;
22138;SDS011;25815;52.582;13.408;2022-09-01T03:12:34;3.42;;;0.82;;
22138;SDS011;25815;52.582;13.408;2022-09-01T03:15:00;1.23;;;0.70;;
22138;SDS011;25815;52.582;13.408;2022-09-01T03:17:26;0.85;;;0.75;;
22138;SDS011;25815;52.582;13.408;2022-09-01T03:19:52;1.85;;;0.80;;
22138;SDS011;25815;52.582;13.408;2022-09-01T03:22:18;3.33;;;0.90;;
22138;SDS011;25815;52.582;13.408;2022-09-01T03:24:46;0.80;;;0.80;;
22138;SDS011;25815;52.582;13.408;2022-09-01T03:27:11;2.08;;;0.95;;
22138;SDS011;25815;52.582;13.408;2022-09-01T03:29:37;3.58;;;0.82;;
22138;SDS011;25815;52.582;13.408;2022-09-01T03:32:03;1.30;;;0.55;;
22138;SDS011;25815;52.582;13.408;2022-09-01T03:34:29;2.83;;;0.80;;
22138;SDS011;25815;52.582;13.408;2022-09-01T03:36:58;3.83;;;1.05;;
22138;SDS011;25815;52.582;13.408;2022-09-01T03:39:25;1.88;;;0.88;;
22138;SDS011;25815;52.582;13.408;2022-09-01T03:41:51;4.22;;;0.82;;
22138;SDS011;25815;52.582;13.408;2022-09-01T03:44:17;2.47;;;0.98;;
22138;SDS011;25815;52.582;13.408;2022-09-01T03:46:43;3.17;;;0.90;;
22138;SDS011;25815;52.582;13.408;2022-09-01T03:49:10;1.23;;;0.85;;
22138;SDS011;25815;52.582;13.408;2022-09-01T03:51:39;3.40;;;1.00;;
22138;SDS011;25815;52.582;13.408;2022-09-01T03:54:06;1.98;;;0.90;;
22138;SDS011;25815;52.582;13.408;2022-09-01T03:56:32;1.33;;;0.75;;
22138;SDS011;25815;52.582;13.408;2022-09-01T03:58:59;1.77;;;0.90;;
22138;SDS011;25815;52.582;13.408;2022-09-01T04:01:28;2.67;;;0.70;;
22138;SDS011;25815;52.582;13.408;2022-09-01T04:04:01;1.63;;;1.00;;
22138;SDS011;25815;52.582;13.408;2022-09-01T04:06:30;1.97;;;0.80;;
22138;SDS011;25815;52.582;13.408;2022-09-01T04:08:56;2.22;;;1.20;;
22138;SDS011;25815;52.582;13.408;2022-09-01T04:11:26;2.65;;;1.10;;
22138;SDS011;25815;52.582;13.408;2022-09-01T04:13:53;2.70;;;1.00;;
22138;SDS011;25815;52.582;13.408;2022-09-01T04:16:20;2.95;;;1.02;;
22138;SDS011;25815;52.582;13.408;2022-09-01T04:19:05;3.25;;;0.93;;
22138;SDS011;25815;52.582;13.408;2022-09-01T04:21:40;3.13;;;0.95;;
22138;SDS011;25815;52.582;13.408;2022-09-01T04:24:07;3.00;;;0.95;;
22138;SDS011;25815;52.582;13.408;2022-09-01T04:26:33;2.45;;;1.02;;
22138;SDS011;25815;52.582;13.408;2022-09-01T04:28:59;1.42;;;1.10;;
22138;SDS011;25815;52.582;13.408;2022-09-01T04:31:26;1.05;;;0.80;;
22138;SDS011;25815;52.582;13.408;2022-09-01T04:33:54;2.97;;;1.00;;
22138;SDS011;25815;52.582;13.408;2022-09-01T04:36:24;1.95;;;1.05;;
22138;SDS011;25815;52.582;13.408;2022-09-01T04:38:54;5.82;;;1.10;;
22138;SDS011;25815;52.582;13.408;2022-09-01T04:44:08;2.15;;;1.00;;
22138;SDS011;25815;52.582;13.408;2022-09-01T04:46:35;1.63;;;1.08;;
22138;SDS011;25815;52.582;13.408;2022-09-01T04:49:02;2.15;;;1.08;;
22138;SDS011;25815;52.582;13.408;2022-09-01T04:51:33;3.25;;;1.23;;
22138;SDS011;25815;52.582;13.408;2022-09-01T04:54:00;6.43;;;1.33;;
22138;SDS011;25815;52.582;13.408;2022-09-01T04:56:26;2.38;;;1.20;;
22138;SDS011;25815;52.582;13.408;2022-09-01T04:58:54;3.40;;;1.15;;
22138;SDS011;25815;52.582;13.408;2022-09-01T05:01:22;2.00;;;1.00;;
22138;SDS011;25815;52.582;13.408;2022-09-01T05:03:49;4.85;;;1.10;;
22138;SDS011;25815;52.582;13.408;2022-09-01T05:06:25;5.53;;;1.17;;
22138;SDS011;25815;52.582;13.408;2022-09-01T05:08:51;2.53;;;0.90;;
22138;SDS011;25815;52.582;13.408;2022-09-01T05:11:17;1.13;;;0.90;;
22138;SDS011;25815;52.582;13.408;2022-09-01T05:13:47;5.93;;;1.23;;
22138;SDS011;25815;52.582;13.408;2022-09-01T05:18:40;2.47;;;1.20;;
22138;SDS011;25815;52.582;13.408;2022-09-01T05:21:09;2.50;;;1.20;;
22138;SDS011;25815;52.582;13.408;2022-09-01T05:23:35;2.30;;;1.15;;
22138;SDS011;25815;52.582;13.408;2022-09-01T05:26:04;1.60;;;0.90;;
22138;SDS011;25815;52.582;13.408;2022-09-01T05:28:38;4.88;;;1.10;;
22138;SDS011;25815;52.582;13.408;2022-09-01T05:31:05;1.63;;;0.88;;
22138;SDS011;25815;52.582;13.408;2022-09-01T05:33:31;1.95;;;0.80;;
22138;SDS011;25815;52.582;13.408;2022-09-01T05:36:01;1.92;;;0.90;;
22138;SDS011;25815;52.582;13.408;2022-09-01T05:38:32;2.03;;;1.15;;
22138;SDS011;25815;52.582;13.408;2022-09-01T05:41:01;3.47;;;1.25;;
22138;SDS011;25815;52.582;13.408;2022-09-01T05:43:28;1.85;;;1.00;;
22138;SDS011;25815;52.582;13.408;2022-09-01T05:45:55;2.40;;;0.98;;
22138;SDS011;25815;52.582;13.408;2022-09-01T05:48:21;5.28;;;1.60;;
22138;SDS011;25815;52.582;13.408;2022-09-01T05:50:47;1.10;;;1.00;;
22138;SDS011;25815;52.582;13.408;2022-09-01T05:53:14;3.85;;;1.05;;
22138;SDS011;25815;52.582;13.408;2022-09-01T05:55:44;2.85;;;0.98;;
22138;SDS011;25815;52.582;13.408;2022-09-01T05:58:11;2.28;;;1.02;;
22138;SDS011;25815;52.582;13.408;2022-09-01T06:00:42;2.17;;;1.50;;
22138;SDS011;25815;52.582;13.408;2022-09-01T06:03:11;1.77;;;1.00;;
22138;SDS011;25815;52.582;13.408;2022-09-01T06:05:38;0.85;;;0.73;;
22138;SDS011;25815;52.582;13.408;2022-09-01T06:08:05;2.45;;;0.70;;
22138;SDS011;25815;52.582;13.408;2022-09-01T06:10:32;3.97;;;1.10;;
22138;SDS011;25815;52.582;13.408;2022-09-01T06:13:01;1.20;;;0.82;;
22138;SDS011;25815;52.582;13.408;2022-09-01T06:15:28;1.73;;;0.70;;
22138;SDS011;25815;52.582;13.408;2022-09-01T06:17:54;2.42;;;0.90;;
22138;SDS011;25815;52.582;13.408;2022-09-01T06:20:20;1.48;;;0.70;;
22138;SDS011;25815;52.582;13.408;2022-09-01T06:22:47;2.15;;;0.90;;
22138;SDS011;25815;52.582;13.408;2022-09-01T06:25:13;2.25;;;0.90;;
22138;SDS011;25815;52.582;13.408;2022-09-01T06:27:41;3.17;;;0.88;;
22138;SDS011;25815;52.582;13.408;2022-09-01T06:30:09;1.40;;;0.80;;
22138;SDS011;25815;52.582;13.408;2022-09-01T06:32:39;2.50;;;0.98;;
22138;SDS011;25815;52.582;13.408;2022-09-01T06:35:07;4.23;;;0.80;;
22138;SDS011;25815;52.582;13.408;2022-09-01T06:37:35;2.15;;;0.70;;
22138;SDS011;25815;52.582;13.408;2022-09-01T06:40:02;3.58;;;0.77;;
22138;SDS011;25815;52.582;13.408;2022-09-01T06:42:28;1.42;;;0.88;;
22138;SDS011;25815;52.582;13.408;2022-09-01T06:44:59;3.42;;;0.73;;
22138;SDS011;25815;52.582;13.408;2022-09-01T06:47:25;2.55;;;0.63;;
22138;SDS011;25815;52.582;13.408;2022-09-01T06:49:52;3.30;;;0.80;;
22138;SDS011;25815;52.582;13.408;2022-09-01T06:52:23;4.07;;;0.70;;
22138;SDS011;25815;52.582;13.408;2022-09-01T06:54:49;1.25;;;0.50;;
22138;SDS011;25815;52.582;13.408;2022-09-01T06:57:17;1.35;;;0.60;;
22138;SDS011;25815;52.582;13.408;2022-09-01T06:59:43;1.17;;;0.88;;
22138;SDS011;25815;52.582;13.408;2022-09-01T07:02:09;1.65;;;0.70;;
22138;SDS011;25815;52.582;13.408;2022-09-01T07:04:40;1.83;;;0.50;;
22138;SDS011;25815;52.582;13.408;2022-09-01T07:07:08;3.22;;;0.90;;
22138;SDS011;25815;52.582;13.408;2022-09-01T07:09:35;2.78;;;0.70;;
22138;SDS011;25815;52.582;13.408;2022-09-01T07:12:01;0.80;;;0.50;;
22138;SDS011;25815;52.582;13.408;2022-09-01T07:14:28;3.90;;;0.70;;
22138;SDS011;25815;52.582;13.408;2022-09-01T07:16:54;1.83;;;0.50;;
22138;SDS011;25815;52.582;13.408;2022-09-01T07:19:22;0.55;;;0.40;;
22138;SDS011;25815;52.582;13.408;2022-09-01T07:21:48;1.20;;;0.50;;
22138;SDS011;25815;52.582;13.408;2022-09-01T07:24:14;2.97;;;0.60;;
22138;SDS011;25815;52.582;13.408;2022-09-01T07:26:42;2.10;;;0.60;;
22138;SDS011;25815;52.582;13.408;2022-09-01T07:29:13;1.20;;;0.50;;
22138;SDS011;25815;52.582;13.408;2022-09-01T07:31:40;1.83;;;0.70;;
22138;SDS011;25815;52.582;13.408;2022-09-01T07:34:09;1.35;;;0.57;;
22138;SDS011;25815;52.582;13.408;2022-09-01T07:36:36;3.35;;;0.80;;
22138;SDS011;25815;52.582;13.408;2022-09-01T07:39:02;3.85;;;0.63;;
22138;SDS011;25815;52.582;13.408;2022-09-01T07:41:29;2.35;;;0.80;;
22138;SDS011;25815;52.582;13.408;2022-09-01T07:43:56;6.65;;;1.30;;
22138;SDS011;25815;52.582;13.408;2022-09-01T07:46:24;2.40;;;0.68;;
22138;SDS011;25815;52.582;13.408;2022-09-01T07:48:54;1.00;;;0.50;;
22138;SDS011;25815;52.582;13.408;2022-09-01T07:51:21;0.95;;;0.50;;
22138;SDS011;25815;52.582;13.408;2022-09-01T07:53:47;1.42;;;0.60;;
22138;SDS011;25815;52.582;13.408;2022-09-01T07:56:14;3.95;;;1.05;;
22138;SDS011;25815;52.582;13.408;2022-09-01T07:58:41;4.68;;;0.75;;
22138;SDS011;25815;52.582;13.408;2022-09-01T08:01:07;4.20;;;1.00;;
22138;SDS011;25815;52.582;13.408;2022-09-01T08:03:34;1.40;;;0.60;;
22138;SDS011;25815;52.582;13.408;2022-09-01T08:06:04;1.25;;;0.50;;
22138;SDS011;25815;52.582;13.408;2022-09-01T08:08:31;2.90;;;0.47;;
22138;SDS011;25815;52.582;13.408;2022-09-01T08:10:57;1.00;;;0.50;;
22138;SDS011;25815;52.582;13.408;2022-09-01T08:13:23;1.38;;;0.45;;
22138;SDS011;25815;52.582;13.408;2022-09-01T08:15:48;0.88;;;0.50;;
22138;SDS011;25815;52.582;13.408;2022-09-01T08:18:15;2.90;;;0.68;;
22138;SDS011;25815;52.582;13.408;2022-09-01T08:20:41;1.42;;;0.63;;
22138;SDS011;25815;52.582;13.408;2022-09-01T08:23:09;2.67;;;0.70;;
22138;SDS011;25815;52.582;13.408;2022-09-01T08:25:36;3.45;;;1.00;;
22138;SDS011;25815;52.582;13.408;2022-09-01T08:28:02;0.95;;;0.70;;
22138;SDS011;25815;52.582;13.408;2022-09-01T08:30:28;1.98;;;0.68;;
22138;SDS011;25815;52.582;13.408;2022-09-01T08:32:56;4.70;;;0.90;;
22138;SDS011;25815;52.582;13.408;2022-09-01T08:35:22;2.47;;;0.70;;
22138;SDS011;25815;52.582;13.408;2022-09-01T08:37:48;1.05;;;0.50;;
22138;SDS011;25815;52.582;13.408;2022-09-01T08:40:15;1.85;;;0.70;;
22138;SDS011;25815;52.582;13.408;2022-09-01T08:45:26;1.77;;;0.60;;
22138;SDS011;25815;52.582;13.408;2022-09-01T08:47:55;2.72;;;0.60;;
22138;SDS011;25815;52.582;13.408;2022-09-01T08:50:22;2.58;;;0.80;;
22138;SDS011;25815;52.582;13.408;2022-09-01T08:52:55;6.22;;;0.80;;
22138;SDS011;25815;52.582;13.408;2022-09-01T08:55:26;2.58;;;0.43;;
22138;SDS011;25815;52.582;13.408;2022-09-01T08:57:53;1.45;;;0.70;;
22138;SDS011;25815;52.582;13.408;2022-09-01T09:00:22;1.05;;;0.52;;
22138;SDS011;25815;52.582;13.408;2022-09-01T09:02:50;3.63;;;0.70;;
22138;SDS011;25815;52.582;13.408;2022-09-01T09:10:41;0.93;;;0.50;;
22138;SDS011;25815;52.582;13.408;2022-09-01T09:13:21;2.95;;;0.63;;
22138;SDS011;25815;52.582;13.408;2022-09-01T09:15:57;3.17;;;0.60;;
22138;SDS011;25815;52.582;13.408;2022-09-01T09:20:56;0.98;;;0.40;;
22138;SDS011;25815;52.582;13.408;2022-09-01T09:23:28;1.48;;;0.32;;
22138;SDS011;25815;52.582;13.408;2022-09-01T09:25:56;3.05;;;0.50;;
22138;SDS011;25815;52.582;13.408;2022-09-01T09:28:21;1.00;;;0.55;;
22138;SDS011;25815;52.582;13.408;2022-09-01T09:30:47;1.90;;;0.30;;
22138;SDS011;25815;52.582;13.408;2022-09-01T09:33:33;1.23;;;0.50;;
22138;SDS011;25815;52.582;13.408;2022-09-01T09:36:19;1.25;;;0.45;;
22138;SDS011;25815;52.582;13.408;2022-09-01T09:38:46;1.48;;;0.60;;
22138;SDS011;25815;52.582;13.408;2022-09-01T09:41:19;1.38;;;0.50;;
22138;SDS011;25815;52.582;13.408;2022-09-01T09:43:51;2.55;;;0.98;;
22138;SDS011;25815;52.582;13.408;2022-09-01T09:46:24;0.93;;;0.40;;
22138;SDS011;25815;52.582;13.408;2022-09-01T09:49:05;1.58;;;0.47;;
22138;SDS011;25815;52.582;13.408;2022-09-01T09:51:31;3.20;;;0.40;;
22138;SDS011;25815;52.582;13.408;2022-09-01T09:59:39;3.72;;;0.40;;
22138;SDS011;25815;52.582;13.408;2022-09-01T10:02:16;2.75;;;0.40;;
22138;SDS011;25815;52.582;13.408;2022-09-01T10:04:44;1.95;;;0.30;;
22138;SDS011;25815;52.582;13.408;2022-09-01T10:07:21;0.85;;;0.40;;
22138;SDS011;25815;52.582;13.408;2022-09-01T10:09:47;3.75;;;0.50;;
22138;SDS011;25815;52.582;13.408;2022-09-01T10:12:13;0.90;;;0.40;;
22138;SDS011;25815;52.582;13.408;2022-09-01T10:14:41;0.85;;;0.40;;
22138;SDS011;25815;52.582;13.408;2022-09-01T10:17:16;2.22;;;0.50;;
22138;SDS011;25815;52.582;13.408;2022-09-01T10:19:52;0.30;;;0.20;;
22138;SDS011;25815;52.582;13.408;2022-09-01T10:22:19;1.33;;;0.30;;
22138;SDS011;25815;52.582;13.408;2022-09-01T10:24:46;1.73;;;0.80;;
22138;SDS011;25815;52.582;13.408;2022-09-01T10:27:15;1.83;;;0.70;;
22138;SDS011;25815;52.582;13.408;2022-09-01T10:29:44;1.77;;;0.50;;
22138;SDS011;25815;52.582;13.408;2022-09-01T10:32:12;0.50;;;0.20;;
22138;SDS011;25815;52.582;13.408;2022-09-01T10:34:40;1.02;;;0.50;;
22138;SDS011;25815;52.582;13.408;2022-09-01T10:37:06;1.25;;;0.30;;
22138;SDS011;25815;52.582;13.408;2022-09-01T10:39:32;0.73;;;0.30;;
22138;SDS011;25815;52.582;13.408;2022-09-01T10:44:34;2.65;;;0.40;;
22138;SDS011;25815;52.582;13.408;2022-09-01T10:47:07;0.70;;;0.30;;
22138;SDS011;25815;52.582;13.408;2022-09-01T10:52:00;0.85;;;0.28;;
22138;SDS011;25815;52.582;13.408;2022-09-01T10:57:08;2.38;;;0.40;;
22138;SDS011;25815;52.582;13.408;2022-09-01T10:59:35;0.50;;;0.30;;
22138;SDS011;25815;52.582;13.408;2022-09-01T11:02:02;1.75;;;0.40;;
22138;SDS011;25815;52.582;13.408;2022-09-01T11:06:59;1.92;;;0.30;;
22138;SDS011;25815;52.582;13.408;2022-09-01T11:09:30;0.57;;;0.30;;
22138;SDS011;25815;52.582;13.408;2022-09-01T11:12:09;0.95;;;0.52;;
22138;SDS011;25815;52.582;13.408;2022-09-01T11:22:41;0.30;;;0.30;;
22138;SDS011;25815;52.582;13.408;2022-09-01T11:30:22;1.10;;;0.22;;
22138;SDS011;25815;52.582;13.408;2022-09-01T11:32:49;0.60;;;0.30;;
22138;SDS011;25815;52.582;13.408;2022-09-01T11:35:19;0.30;;;0.20;;
22138;SDS011;25815;52.582;13.408;2022-09-01T11:37:49;1.15;;;0.28;;
22138;SDS011;25815;52.582;13.408;2022-09-01T11:40:19;0.75;;;0.30;;
22138;SDS011;25815;52.582;13.408;2022-09-01T11:42:45;0.73;;;0.30;;
22138;SDS011;25815;52.582;13.408;2022-09-01T11:47:37;2.60;;;0.30;;
22138;SDS011;25815;52.582;13.408;2022-09-01T11:50:16;1.42;;;0.30;;
22138;SDS011;25815;52.582;13.408;2022-09-01T11:52:50;0.30;;;0.10;;
22138;SDS011;25815;52.582;13.408;2022-09-01T11:55:26;0.93;;;0.30;;
22138;SDS011;25815;52.582;13.408;2022-09-01T11:57:52;1.20;;;0.45;;
22138;SDS011;25815;52.582;13.408;2022-09-01T12:00:24;1.48;;;0.30;;
22138;SDS011;25815;52.582;13.408;2022-09-01T12:02:51;1.50;;;0.30;;
22138;SDS011;25815;52.582;13.408;2022-09-01T12:05:52;0.20;;;0.10;;
22138;SDS011;25815;52.582;13.408;2022-09-01T12:08:11;1.88;;;0.30;;
22138;SDS011;25815;52.582;13.408;2022-09-01T12:10:38;0.40;;;0.20;;
22138;SDS011;25815;52.582;13.408;2022-09-01T12:13:06;0.45;;;0.25;;
22138;SDS011;25815;52.582;13.408;2022-09-01T12:15:33;1.20;;;0.30;;
22138;SDS011;25815;52.582;13.408;2022-09-01T12:21:05;0.47;;;0.10;;
22138;SDS011;25815;52.582;13.408;2022-09-01T12:23:38;0.22;;;0.20;;
22138;SDS011;25815;52.582;13.408;2022-09-01T12:26:08;1.27;;;0.40;;
22138;SDS011;25815;52.582;13.408;2022-09-01T12:28:35;0.63;;;0.25;;
22138;SDS011;25815;52.582;13.408;2022-09-01T12:31:04;2.30;;;0.25;;
22138;SDS011;25815;52.582;13.408;2022-09-01T12:33:30;2.85;;;0.20;;
22138;SDS011;25815;52.582;13.408;2022-09-01T12:36:13;0.30;;;0.20;;
22138;SDS011;25815;52.582;13.408;2022-09-01T12:38:39;1.85;;;0.30;;
22138;SDS011;25815;52.582;13.408;2022-09-01T12:41:21;1.60;;;0.20;;
22138;SDS011;25815;52.582;13.408;2022-09-01T12:43:47;0.20;;;0.10;;
22138;SDS011;25815;52.582;13.408;2022-09-01T12:46:37;0.30;;;0.30;;
22138;SDS011;25815;52.582;13.408;2022-09-01T12:49:14;0.73;;;0.20;;
22138;SDS011;25815;52.582;13.408;2022-09-01T12:51:40;2.67;;;0.40;;
22138;SDS011;25815;52.582;13.408;2022-09-01T12:54:06;2.65;;;0.30;;
22138;SDS011;25815;52.582;13.408;2022-09-01T12:56:33;0.77;;;0.30;;
22138;SDS011;25815;52.582;13.408;2022-09-01T12:59:04;2.35;;;0.30;;
22138;SDS011;25815;52.582;13.408;2022-09-01T13:01:32;0.68;;;0.20;;
22138;SDS011;25815;52.582;13.408;2022-09-01T13:06:36;0.75;;;0.22;;
22138;SDS011;25815;52.582;13.408;2022-09-01T13:09:02;0.68;;;0.22;;
22138;SDS011;25815;52.582;13.408;2022-09-01T13:11:28;0.75;;;0.35;;
22138;SDS011;25815;52.582;13.408;2022-09-01T13:13:54;3.00;;;0.30;;
22138;SDS011;25815;52.582;13.408;2022-09-01T13:16:20;0.22;;;0.20;;
22138;SDS011;25815;52.582;13.408;2022-09-01T13:18:46;0.65;;;0.20;;
22138;SDS011;25815;52.582;13.408;2022-09-01T13:21:12;1.65;;;0.22;;
22138;SDS011;25815;52.582;13.408;2022-09-01T13:23:38;3.60;;;0.30;;
22138;SDS011;25815;52.582;13.408;2022-09-01T13:26:04;1.30;;;0.20;;
22138;SDS011;25815;52.582;13.408;2022-09-01T13:28:30;0.85;;;0.20;;
22138;SDS011;25815;52.582;13.408;2022-09-01T13:30:58;2.00;;;0.38;;
22138;SDS011;25815;52.582;13.408;2022-09-01T13:33:25;2.08;;;0.32;;
22138;SDS011;25815;52.582;13.408;2022-09-01T13:35:51;2.75;;;0.43;;
22138;SDS011;25815;52.582;13.408;2022-09-01T13:38:17;1.70;;;0.35;;
22138;SDS011;25815;52.582;13.408;2022-09-01T13:40:44;0.50;;;0.30;;
22138;SDS011;25815;52.582;13.408;2022-09-01T13:43:11;0.47;;;0.47;;
22138;SDS011;25815;52.582;13.408;2022-09-01T13:45:37;1.58;;;0.40;;
22138;SDS011;25815;52.582;13.408;2022-09-01T13:48:04;1.20;;;0.30;;
22138;SDS011;25815;52.582;13.408;2022-09-01T13:50:30;0.93;;;0.50;;
22138;SDS011;25815;52.582;13.408;2022-09-01T13:52:56;1.20;;;0.40;;
22138;SDS011;25815;52.582;13.408;2022-09-01T13:55:26;2.17;;;0.50;;
22138;SDS011;25815;52.582;13.408;2022-09-01T13:57:52;1.00;;;0.52;;
22138;SDS011;25815;52.582;13.408;2022-09-01T14:00:20;1.67;;;0.28;;
22138;SDS011;25815;52.582;13.408;2022-09-01T14:02:48;0.63;;;0.30;;
22138;SDS011;25815;52.582;13.408;2022-09-01T14:05:17;0.68;;;0.40;;
22138;SDS011;25815;52.582;13.408;2022-09-01T14:07:43;1.75;;;0.20;;
22138;SDS011;25815;52.582;13.408;2022-09-01T14:10:09;0.85;;;0.20;;
22138;SDS011;25815;52.582;13.408;2022-09-01T14:12:35;0.85;;;0.40;;
22138;SDS011;25815;52.582;13.408;2022-09-01T14:15:02;1.77;;;0.40;;
22138;SDS011;25815;52.582;13.408;2022-09-01T14:17:28;0.85;;;0.30;;
22138;SDS011;25815;52.582;13.408;2022-09-01T14:19:54;0.80;;;0.22;;
22138;SDS011;25815;52.582;13.408;2022-09-01T14:22:21;0.10;;;0.10;;
22138;SDS011;25815;52.582;13.408;2022-09-01T14:24:47;0.82;;;0.40;;
22138;SDS011;25815;52.582;13.408;2022-09-01T14:27:13;1.20;;;0.50;;
22138;SDS011;25815;52.582;13.408;2022-09-01T14:29:39;1.48;;;0.70;;
22138;SDS011;25815;52.582;13.408;2022-09-01T14:32:05;0.43;;;0.30;;
22138;SDS011;25815;52.582;13.408;2022-09-01T14:34:31;1.00;;;0.40;;
22138;SDS011;25815;52.582;13.408;2022-09-01T14:36:57;4.32;;;0.40;;
22138;SDS011;25815;52.582;13.408;2022-09-01T14:39:23;1.67;;;0.32;;
22138;SDS011;25815;52.582;13.408;2022-09-01T14:41:50;1.92;;;0.30;;
22138;SDS011;25815;52.582;13.408;2022-09-01T14:44:16;1.95;;;0.30;;
22138;SDS011;25815;52.582;13.408;2022-09-01T14:46:42;2.25;;;0.40;;
22138;SDS011;25815;52.582;13.408;2022-09-01T14:49:09;1.38;;;0.30;;
22138;SDS011;25815;52.582;13.408;2022-09-01T14:51:35;1.90;;;0.40;;
22138;SDS011;25815;52.582;13.408;2022-09-01T14:54:02;0.80;;;0.32;;
22138;SDS011;25815;52.582;13.408;2022-09-01T14:56:28;0.30;;;0.30;;
22138;SDS011;25815;52.582;13.408;2022-09-01T14:58:54;0.63;;;0.30;;
22138;SDS011;25815;52.582;13.408;2022-09-01T15:01:25;0.63;;;0.32;;
22138;SDS011;25815;52.582;13.408;2022-09-01T15:03:51;2.63;;;0.32;;
22138;SDS011;25815;52.582;13.408;2022-09-01T15:06:18;0.40;;;0.40;;
22138;SDS011;25815;52.582;13.408;2022-09-01T15:08:44;1.40;;;0.40;;
22138;SDS011;25815;52.582;13.408;2022-09-01T15:11:15;0.68;;;0.30;;
22138;SDS011;25815;52.582;13.408;2022-09-01T15:13:41;2.95;;;0.40;;
22138;SDS011;25815;52.582;13.408;2022-09-01T15:16:16;1.45;;;0.40;;
22138;SDS011;25815;52.582;13.408;2022-09-01T15:18:42;0.57;;;0.25;;
22138;SDS011;25815;52.582;13.408;2022-09-01T15:21:16;2.13;;;0.60;;
22138;SDS011;25815;52.582;13.408;2022-09-01T15:23:42;0.98;;;0.30;;
22138;SDS011;25815;52.582;13.408;2022-09-01T15:26:08;1.65;;;0.30;;
22138;SDS011;25815;52.582;13.408;2022-09-01T15:28:34;1.40;;;0.30;;
22138;SDS011;25815;52.582;13.408;2022-09-01T15:31:00;2.63;;;0.65;;
22138;SDS011;25815;52.582;13.408;2022-09-01T15:33:26;0.40;;;0.30;;
22138;SDS011;25815;52.582;13.408;2022-09-01T15:35:52;0.65;;;0.30;;